createdAt,value
2023-01-28T00:02:15.811Z,82.65
2023-01-28T00:04:53.445Z,82.66
2023-01-28T00:07:29.975Z,82.43
2023-01-28T00:10:05.749Z,82.73
2023-01-28T00:12:44.583Z,83.12
2023-01-28T00:15:26.504Z,83.01
2023-01-28T00:18:01.637Z,83.15
2023-01-28T00:20:38.080Z,83.03
2023-01-28T00:23:14.508Z,83.24
2023-01-28T00:25:49.787Z,83.13
2023-01-28T00:28:27.354Z,82.77
2023-01-28T00:31:10.286Z,82.72
2023-01-28T00:33:45.431Z,83.08
2023-01-28T00:36:32.088Z,83.26
2023-01-28T00:39:10.307Z,83.42
2023-01-28T00:41:44.007Z,83.49
2023-01-28T00:44:20.672Z,83.59
2023-01-28T00:46:56.918Z,83.47
2023-01-28T00:49:33.584Z,83.61
2023-01-28T00:52:09.955Z,83.59
2023-01-28T00:54:46.870Z,83.69
2023-01-28T00:57:24.495Z,83.86
2023-01-28T00:59:59.816Z,83.77
2023-01-28T01:02:36.261Z,83.73
2023-01-28T01:05:14.828Z,83.93
2023-01-28T01:07:53.922Z,84.18
2023-01-28T01:10:30.252Z,84.13
2023-01-28T01:13:08.963Z,84.20
2023-01-28T01:15:44.517Z,84.33
2023-01-28T01:18:19.574Z,84.26
2023-01-28T01:20:57.350Z,84.24
2023-01-28T01:23:34.120Z,84.36
2023-01-28T01:26:11.343Z,84.31
2023-01-28T01:28:48.432Z,84.02
2023-01-28T01:31:26.725Z,84.34
2023-01-28T01:34:04.002Z,84.31
2023-01-28T01:36:38.550Z,84.08
2023-01-28T01:39:25.311Z,84.16
2023-01-28T01:42:02.236Z,84.26
2023-01-28T01:45:31.150Z,84.14
2023-01-28T01:48:12.149Z,84.10
2023-01-28T01:50:56.125Z,84.32
2023-01-28T01:53:33.069Z,84.03
2023-01-28T01:56:14.419Z,84.05
2023-01-28T01:58:56.555Z,84.03
2023-01-28T02:01:36.190Z,83.79
2023-01-28T02:04:15.313Z,83.89
2023-01-28T02:06:52.376Z,83.88
2023-01-28T02:09:32.313Z,83.80
2023-01-28T02:12:16.017Z,83.74
2023-01-28T02:14:55.819Z,83.59
2023-01-28T02:17:32.716Z,83.56
2023-01-28T02:20:15.977Z,83.78
2023-01-28T02:23:33.163Z,83.58
2023-01-28T02:26:28.224Z,83.30
2023-01-28T02:29:11.380Z,83.40
2023-01-28T02:31:55.824Z,83.36
2023-01-28T02:34:38.077Z,83.10
2023-01-28T02:37:20.450Z,83.08
2023-01-28T02:40:01.433Z,83.32
2023-01-28T02:42:40.522Z,83.37
2023-01-28T02:45:25.638Z,83.31
2023-01-28T02:48:01.304Z,83.07
2023-01-28T02:50:48.401Z,83.11
2023-01-28T02:53:45.227Z,83.17
2023-01-28T02:56:30.793Z,83.26
2023-01-28T02:59:26.481Z,83.13
2023-01-28T03:02:13.320Z,82.99
2023-01-28T03:04:56.357Z,83.03
2023-01-28T03:07:37.245Z,83.07
2023-01-28T03:10:17.639Z,82.92
2023-01-28T03:13:14.787Z,82.61
2023-01-28T03:16:10.856Z,83.06
2023-01-28T03:19:10.304Z,83.13
2023-01-28T03:22:03.790Z,83.29
2023-01-28T03:25:08.621Z,82.47
2023-01-28T03:28:10.874Z,82.77
2023-01-28T03:31:09.336Z,82.65
2023-01-28T03:34:08.500Z,82.33
2023-01-28T03:36:50.963Z,82.37
2023-01-28T03:39:44.866Z,82.45
2023-01-28T03:42:21.094Z,82.39
2023-01-28T03:45:19.113Z,82.27
2023-01-28T03:47:55.030Z,81.75
2023-01-28T03:50:30.897Z,81.59
2023-01-28T03:53:16.852Z,81.80
2023-01-28T03:55:59.556Z,81.52
2023-01-28T03:58:54.204Z,81.85
2023-01-28T04:01:32.319Z,81.84
2023-01-28T04:04:24.032Z,81.94
2023-01-28T04:07:00.806Z,81.62
2023-01-28T04:09:58.391Z,81.62
2023-01-28T04:12:58.913Z,81.38
2023-01-28T04:15:36.939Z,81.12
2023-01-28T04:18:12.046Z,80.68
2023-01-28T04:20:51.153Z,80.93
2023-01-28T04:23:27.714Z,81.19
2023-01-28T04:26:09.610Z,81.29
2023-01-28T04:28:44.108Z,80.86
2023-01-28T04:31:24.463Z,80.76
2023-01-28T04:34:11.296Z,80.64
2023-01-28T04:37:00.580Z,80.71
2023-01-28T04:40:01.468Z,80.32
2023-01-28T04:43:04.398Z,80.34
2023-01-28T04:46:04.429Z,80.44
2023-01-28T04:49:01.218Z,80.72
2023-01-28T04:51:47.809Z,80.36
2023-01-28T04:54:49.659Z,80.59
2023-01-28T04:57:24.886Z,80.36
2023-01-28T05:00:08.608Z,80.18
2023-01-28T05:02:44.274Z,80.26
2023-01-28T05:05:20.488Z,80.60
2023-01-28T05:08:09.378Z,79.82
2023-01-28T05:10:44.708Z,79.89
2023-01-28T05:13:21.167Z,79.68
2023-01-28T05:15:58.151Z,79.86
2023-01-28T05:18:33.835Z,79.80
2023-01-28T05:21:15.670Z,79.46
2023-01-28T05:23:51.829Z,79.71
2023-01-28T05:26:26.327Z,79.70
2023-01-28T05:29:01.134Z,79.62
2023-01-28T05:31:38.048Z,79.79
2023-01-28T05:34:11.555Z,79.83
2023-01-28T05:36:48.769Z,79.81
2023-01-28T05:39:40.675Z,79.91
2023-01-28T05:42:24.114Z,80.09
2023-01-28T05:45:04.536Z,80.12
2023-01-28T05:47:58.434Z,79.85
2023-01-28T05:51:06.261Z,80.12
2023-01-28T05:53:44.897Z,80.22
2023-01-28T05:56:19.842Z,80.41
2023-01-28T05:58:55.945Z,80.51
2023-01-28T06:01:30.564Z,80.56
2023-01-28T06:04:08.949Z,80.53
2023-01-28T06:06:45.381Z,80.72
2023-01-28T06:09:19.771Z,80.45
2023-01-28T06:11:55.748Z,80.49
2023-01-28T06:14:34.103Z,80.44
2023-01-28T06:17:27.308Z,80.53
2023-01-28T06:20:20.250Z,80.62
2023-01-28T06:22:58.854Z,80.40
2023-01-28T06:25:35.699Z,80.37
2023-01-28T06:28:16.481Z,80.87
2023-01-28T06:30:59.645Z,80.23
2023-01-28T06:33:34.624Z,80.26
2023-01-28T06:36:14.053Z,80.66
2023-01-28T06:38:48.127Z,80.34
2023-01-28T06:41:24.107Z,80.61
2023-01-28T06:44:00.567Z,80.35
2023-01-28T06:46:35.762Z,80.28
2023-01-28T06:49:10.447Z,80.57
2023-01-28T06:51:46.397Z,80.65
2023-01-28T06:54:23.531Z,80.34
2023-01-28T06:56:57.807Z,80.31
2023-01-28T06:59:34.668Z,80.39
2023-01-28T07:02:11.599Z,80.46
2023-01-28T07:04:46.961Z,80.37
2023-01-28T07:07:26.272Z,80.53
2023-01-28T07:10:01.098Z,80.31
2023-01-28T07:12:35.102Z,80.42
2023-01-28T07:15:15.498Z,80.36
2023-01-28T07:17:52.108Z,80.29
2023-01-28T07:20:32.421Z,80.39
2023-01-28T07:23:08.699Z,80.43
2023-01-28T07:25:42.982Z,80.50
2023-01-28T07:28:22.532Z,80.38
2023-01-28T07:31:03.062Z,79.92
2023-01-28T07:33:40.297Z,79.75
2023-01-28T07:36:16.727Z,80.02
2023-01-28T07:38:53.494Z,80.29
2023-01-28T07:41:30.824Z,79.93
2023-01-28T07:44:12.500Z,80.23
2023-01-28T07:46:46.817Z,80.18
2023-01-28T07:49:20.565Z,79.93
2023-01-28T07:51:55.409Z,80.02
2023-01-28T07:54:30.330Z,79.45
2023-01-28T07:57:11.130Z,79.69
2023-01-28T07:59:46.168Z,79.75
2023-01-28T08:02:24.157Z,79.82
2023-01-28T08:05:00.639Z,79.66
2023-01-28T08:07:35.760Z,79.55
2023-01-28T08:10:14.543Z,79.35
2023-01-28T08:12:58.566Z,79.03
2023-01-28T08:15:35.413Z,79.27
2023-01-28T08:18:13.835Z,79.02
2023-01-28T08:20:48.880Z,78.70
2023-01-28T08:23:27.106Z,79.28
2023-01-28T08:26:07.476Z,78.86
2023-01-28T08:28:46.163Z,78.77
2023-01-28T08:31:20.986Z,78.72
2023-01-28T08:33:56.739Z,78.83
2023-01-28T08:36:33.443Z,78.69
2023-01-28T08:39:08.668Z,78.94
2023-01-28T08:41:45.722Z,78.73
2023-01-28T08:44:23.517Z,79.07
2023-01-28T08:46:57.534Z,78.89
2023-01-28T08:49:34.620Z,78.80
2023-01-28T08:52:08.777Z,78.37
2023-01-28T08:54:46.458Z,78.71
2023-01-28T08:57:20.528Z,78.84
2023-01-28T09:00:01.919Z,78.57
2023-01-28T09:02:35.663Z,78.50
2023-01-28T09:05:15.331Z,78.15
2023-01-28T09:07:52.502Z,78.29
2023-01-28T09:10:27.730Z,77.84
2023-01-28T09:13:07.829Z,77.93
2023-01-28T09:15:45.461Z,77.86
2023-01-28T09:18:21.923Z,77.94
2023-01-28T09:20:58.826Z,77.88
2023-01-28T09:23:36.255Z,77.96
2023-01-28T09:26:11.551Z,78.09
2023-01-28T09:28:49.328Z,77.78
2023-01-28T09:31:25.113Z,77.74
2023-01-28T09:33:59.991Z,77.73
2023-01-28T09:36:39.027Z,77.91
2023-01-28T09:39:12.178Z,77.69
2023-01-28T09:42:00.175Z,78.02
2023-01-28T09:44:54.252Z,78.17
2023-01-28T09:47:35.265Z,77.64
2023-01-28T09:50:16.424Z,77.29
2023-01-28T09:52:55.912Z,77.35
2023-01-28T09:55:44.726Z,76.80
2023-01-28T09:58:26.195Z,77.06
2023-01-28T10:01:08.441Z,77.09
2023-01-28T10:03:54.391Z,76.49
2023-01-28T10:06:43.678Z,76.31
2023-01-28T10:09:43.561Z,76.40
2023-01-28T10:12:35.675Z,76.48
2023-01-28T10:15:37.155Z,76.24
2023-01-28T10:18:17.922Z,76.31
2023-01-28T10:20:58.136Z,76.39
2023-01-28T10:23:48.396Z,76.29
2023-01-28T10:26:28.030Z,75.95
2023-01-28T10:29:14.103Z,75.68
2023-01-28T10:31:58.324Z,75.70
2023-01-28T10:34:37.715Z,75.84
2023-01-28T10:37:16.808Z,75.05
2023-01-28T10:39:54.411Z,75.36
2023-01-28T10:42:34.061Z,75.96
2023-01-28T10:45:20.070Z,76.12
2023-01-28T10:48:05.420Z,76.32
2023-01-28T10:50:51.703Z,75.95
2023-01-28T10:53:38.393Z,75.54
2023-01-28T10:56:19.140Z,75.60
2023-01-28T10:59:03.505Z,75.58
2023-01-28T11:01:51.093Z,75.73
2023-01-28T11:04:31.884Z,75.05
2023-01-28T11:07:21.050Z,74.91
2023-01-28T11:09:56.868Z,74.87
2023-01-28T11:12:35.211Z,74.66
2023-01-28T11:15:20.635Z,75.03
2023-01-28T11:18:02.332Z,74.76
2023-01-28T11:20:45.764Z,74.70
2023-01-28T11:23:31.623Z,75.19
2023-01-28T11:26:19.314Z,74.98
2023-01-28T11:28:55.774Z,75.18
2023-01-28T11:31:30.198Z,74.65
2023-01-28T11:34:17.581Z,74.54
2023-01-28T11:37:05.080Z,75.35
2023-01-28T11:39:42.720Z,75.51
2023-01-28T11:42:20.567Z,75.59
2023-01-28T11:44:57.623Z,75.60
2023-01-28T11:47:47.857Z,75.48
2023-01-28T11:50:36.950Z,75.41
2023-01-28T11:53:30.063Z,75.52
2023-01-28T11:56:30.844Z,75.18
2023-01-28T12:02:39.220Z,75.02
2023-01-28T12:05:41.204Z,74.97
2023-01-28T12:08:25.479Z,74.90
2023-01-28T12:11:20.706Z,74.43
2023-01-28T12:14:06.268Z,74.09
2023-01-28T12:16:59.041Z,74.14
2023-01-28T12:19:47.900Z,74.04
2023-01-28T12:22:46.690Z,73.93
2023-01-28T12:25:34.312Z,74.62
2023-01-28T12:28:31.043Z,73.86
2023-01-28T12:34:29.853Z,72.75
2023-01-28T12:37:12.596Z,72.93
2023-01-28T12:40:03.850Z,73.13
2023-01-28T12:42:43.934Z,73.05
2023-01-28T12:45:26.696Z,72.65
2023-01-28T12:48:11.184Z,73.55
2023-01-28T12:50:50.037Z,73.61
2023-01-28T12:53:32.622Z,73.67
2023-01-28T12:56:17.731Z,73.54
2023-01-28T12:58:59.228Z,73.32
2023-01-28T13:01:43.434Z,73.08
2023-01-28T13:04:30.312Z,73.21
2023-01-28T13:07:11.518Z,72.54
2023-01-28T13:09:56.398Z,72.58
2023-01-28T13:12:31.567Z,71.71
2023-01-28T13:15:14.262Z,71.57
2023-01-28T13:18:00.740Z,72.14
2023-01-28T13:20:42.893Z,71.30
2023-01-28T13:23:28.978Z,71.28
2023-01-28T13:26:29.883Z,71.38
2023-01-28T13:29:30.068Z,71.35
2023-01-28T13:32:25.901Z,71.52
2023-01-28T13:35:06.220Z,71.42
2023-01-28T13:37:42.724Z,71.34
2023-01-28T13:40:30.421Z,70.97
2023-01-28T13:43:08.414Z,71.35
2023-01-28T13:45:46.010Z,70.59
2023-01-28T13:48:31.348Z,70.85
2023-01-28T13:51:11.791Z,71.28
2023-01-28T13:53:57.688Z,71.37
2023-01-28T13:56:41.565Z,70.84
2023-01-28T13:59:43.484Z,70.47
2023-01-28T14:02:49.792Z,70.54
2023-01-28T14:05:58.416Z,70.65
2023-01-28T14:09:22.307Z,70.85
2023-01-28T14:12:36.840Z,70.17
2023-01-28T14:15:42.372Z,70.14
2023-01-28T14:18:28.258Z,70.01
2023-01-28T14:21:13.157Z,70.31
2023-01-28T14:23:53.320Z,70.01
2023-01-28T14:26:45.477Z,70.00
2023-01-28T14:29:37.523Z,69.97
2023-01-28T14:32:20.455Z,70.10
2023-01-28T14:34:59.351Z,70.20
2023-01-28T14:37:37.636Z,70.20
2023-01-28T14:40:19.040Z,70.06
2023-01-28T14:42:57.676Z,70.34
2023-01-28T14:45:52.457Z,70.25
2023-01-28T14:48:39.101Z,70.13
2023-01-28T14:51:40.864Z,70.28
2023-01-28T14:54:26.959Z,70.02
2023-01-28T14:57:17.717Z,70.03
2023-01-28T14:59:58.473Z,69.86
2023-01-28T15:02:35.518Z,69.68
2023-01-28T15:05:34.372Z,70.20
2023-01-28T15:08:10.201Z,70.44
2023-01-28T15:10:45.484Z,70.53
2023-01-28T15:13:27.429Z,70.35
2023-01-28T15:16:03.378Z,70.20
2023-01-28T15:18:44.475Z,70.19
2023-01-28T15:21:24.724Z,70.46
2023-01-28T15:24:04.308Z,70.58
2023-01-28T15:26:43.197Z,70.19
2023-01-28T15:29:28.394Z,70.39
2023-01-28T15:32:07.267Z,69.82
2023-01-28T15:34:50.561Z,68.66
2023-01-28T15:37:26.493Z,69.49
2023-01-28T15:40:09.231Z,69.50
2023-01-28T15:42:48.023Z,68.76
2023-01-28T15:45:26.556Z,69.53
2023-01-28T15:48:09.171Z,69.70
2023-01-28T15:50:47.965Z,70.16
2023-01-28T15:53:22.871Z,70.42
2023-01-28T15:56:09.368Z,70.28
2023-01-28T15:58:48.621Z,70.20
2023-01-28T16:01:26.076Z,69.78
2023-01-28T16:04:10.711Z,69.52
2023-01-28T16:06:48.282Z,69.62
2023-01-28T16:09:30.854Z,69.50
2023-01-28T16:12:10.965Z,69.97
2023-01-28T16:14:51.226Z,70.46
2023-01-28T16:17:36.719Z,70.75
2023-01-28T16:20:23.244Z,70.92
2023-01-28T16:23:04.152Z,70.98
2023-01-28T16:25:41.711Z,71.13
2023-01-28T16:28:25.407Z,70.86
2023-01-28T16:31:01.917Z,70.79
2023-01-28T16:33:37.236Z,70.78
2023-01-28T16:36:19.978Z,71.11
2023-01-28T16:38:54.959Z,71.35
2023-01-28T16:41:34.236Z,71.39
2023-01-28T16:44:12.629Z,71.38
2023-01-28T16:46:48.388Z,71.24
2023-01-28T16:49:24.786Z,71.31
2023-01-28T16:52:03.099Z,71.56
2023-01-28T16:54:39.762Z,71.60
2023-01-28T16:57:16.495Z,71.72
2023-01-28T16:59:52.989Z,71.69
2023-01-28T17:02:27.659Z,71.39
2023-01-28T17:05:02.334Z,71.32
2023-01-28T17:07:37.019Z,71.29
2023-01-28T17:10:15.118Z,71.52
2023-01-28T17:12:51.218Z,71.29
2023-01-28T17:15:28.907Z,71.10
2023-01-28T17:18:03.289Z,70.90
2023-01-28T17:20:42.712Z,70.90
2023-01-28T17:23:23.091Z,71.06
2023-01-28T17:26:05.002Z,71.28
2023-01-28T17:28:40.937Z,71.27
2023-01-28T17:31:18.514Z,71.46
2023-01-28T17:33:57.616Z,71.44
2023-01-28T17:36:33.747Z,71.36
2023-01-28T17:39:09.699Z,71.53
2023-01-28T17:41:46.386Z,71.63
2023-01-28T17:44:22.764Z,71.67
2023-01-28T17:46:59.789Z,71.80
2023-01-28T17:49:33.523Z,71.66
2023-01-28T17:52:13.643Z,71.73
2023-01-28T17:54:50.809Z,71.88
2023-01-28T17:57:27.218Z,71.97
2023-01-28T18:00:02.457Z,72.40
2023-01-28T18:02:46.815Z,72.41
2023-01-28T18:05:24.058Z,72.33
2023-01-28T18:08:00.187Z,72.08
2023-01-28T18:10:35.673Z,72.50
2023-01-28T18:13:11.349Z,72.47
2023-01-28T18:15:48.461Z,72.47
2023-01-28T18:18:24.416Z,72.58
2023-01-28T18:21:04.528Z,72.42
2023-01-28T18:23:38.776Z,72.40
2023-01-28T18:26:14.419Z,72.33
2023-01-28T18:28:49.959Z,72.52
2023-01-28T18:31:35.010Z,72.63
2023-01-28T18:34:09.969Z,72.77
2023-01-28T18:36:44.809Z,72.82
2023-01-28T18:39:21.247Z,73.03
2023-01-28T18:41:58.943Z,73.18
2023-01-28T18:44:32.729Z,72.85
2023-01-28T18:47:08.692Z,73.06
2023-01-28T18:49:44.938Z,72.97
2023-01-28T18:52:21.021Z,73.22
2023-01-28T18:54:57.683Z,73.47
2023-01-28T18:57:32.068Z,73.48
2023-01-28T19:00:12.738Z,73.65
2023-01-28T19:02:49.167Z,73.72
2023-01-28T19:05:27.488Z,73.97
2023-01-28T19:08:05.032Z,74.12
2023-01-28T19:10:41.190Z,74.12
2023-01-28T19:13:16.612Z,74.26
2023-01-28T19:15:53.575Z,74.36
2023-01-28T19:18:28.023Z,74.40
2023-01-28T19:21:09.605Z,74.43
2023-01-28T19:23:50.270Z,74.63
2023-01-28T19:26:28.583Z,74.82
2023-01-28T19:29:01.935Z,74.78
2023-01-28T19:31:38.191Z,74.95
2023-01-28T19:34:13.224Z,74.83
2023-01-28T19:36:50.689Z,75.01
2023-01-28T19:39:26.194Z,75.17
2023-01-28T19:42:07.182Z,75.02
2023-01-28T19:44:43.738Z,75.32
2023-01-28T19:47:18.934Z,75.40
2023-01-28T19:49:54.841Z,75.42
2023-01-28T19:56:55.465Z,75.77
2023-01-28T19:59:29.351Z,75.74
2023-01-28T20:02:03.005Z,75.95
2023-01-28T20:04:38.288Z,75.75
2023-01-28T20:07:16.991Z,75.94
2023-01-28T20:09:51.769Z,75.81
2023-01-28T20:12:27.806Z,75.87
2023-01-28T20:15:01.641Z,76.03
2023-01-28T20:17:36.361Z,75.89
2023-01-28T20:20:13.842Z,75.82
2023-01-28T20:22:47.227Z,75.92
2023-01-28T20:25:46.798Z,75.92
2023-01-28T20:28:29.755Z,76.09
2023-01-28T20:31:10.125Z,76.31
2023-01-28T20:33:47.710Z,76.13
2023-01-28T20:39:54.122Z,76.02
2023-01-28T20:42:31.835Z,76.35
2023-01-28T20:45:16.298Z,76.28
2023-01-28T20:47:49.879Z,76.33
2023-01-28T20:50:26.446Z,76.29
2023-01-28T20:53:01.510Z,76.45
2023-01-28T20:55:38.665Z,76.23
2023-01-28T20:58:14.029Z,76.33
2023-01-28T21:00:48.032Z,76.25
2023-01-28T21:03:24.169Z,76.69
2023-01-28T21:05:59.674Z,76.63
2023-01-28T21:08:38.892Z,76.49
2023-01-28T21:11:16.249Z,76.60
2023-01-28T21:13:52.428Z,76.62
2023-01-28T21:16:29.335Z,76.59
2023-01-28T21:19:05.472Z,76.62
2023-01-28T21:21:42.910Z,76.79
2023-01-28T21:24:19.138Z,76.70
2023-01-28T21:26:55.844Z,76.79
2023-01-28T21:29:31.169Z,76.90
2023-01-28T21:32:07.680Z,77.05
2023-01-28T21:34:45.417Z,77.05
2023-01-28T21:37:22.877Z,77.39
2023-01-28T21:39:59.477Z,77.50
2023-01-28T21:42:35.604Z,77.50
2023-01-28T21:45:13.690Z,77.64
2023-01-28T21:47:54.206Z,77.72
2023-01-28T21:50:28.289Z,77.57
2023-01-28T21:53:03.316Z,77.68
2023-01-28T21:55:37.879Z,77.58
2023-01-28T21:58:25.886Z,77.65
2023-01-28T22:01:01.211Z,77.80
2023-01-28T22:03:37.386Z,77.90
2023-01-28T22:06:14.122Z,78.24
2023-01-28T22:08:49.463Z,78.02
2023-01-28T22:11:25.185Z,78.05
2023-01-28T22:14:01.772Z,78.27
2023-01-28T22:16:38.212Z,78.21
2023-01-28T22:19:14.113Z,78.40
2023-01-28T22:21:52.331Z,78.54
2023-01-28T22:24:29.240Z,78.61
2023-01-28T22:27:05.759Z,78.65
2023-01-28T22:29:40.288Z,78.47
2023-01-28T22:32:16.295Z,78.75
2023-01-28T22:34:54.003Z,78.83
2023-01-28T22:37:29.032Z,78.86
2023-01-28T22:40:05.144Z,78.69
2023-01-28T22:42:39.459Z,78.66
2023-01-28T22:45:18.411Z,78.75
2023-01-28T22:47:54.455Z,78.58
2023-01-28T22:50:29.404Z,78.82
2023-01-28T22:53:05.644Z,78.77
2023-01-28T22:55:41.552Z,78.88
2023-01-28T22:58:17.191Z,78.95
2023-01-28T23:00:53.146Z,78.85
2023-01-28T23:03:27.558Z,78.94
2023-01-28T23:06:04.573Z,78.92
2023-01-28T23:08:40.954Z,79.11
2023-01-28T23:11:25.343Z,79.09
2023-01-28T23:14:19.580Z,79.26
2023-01-28T23:17:12.794Z,79.26
2023-01-28T23:20:04.836Z,79.34
2023-01-28T23:22:56.442Z,79.41
2023-01-28T23:25:31.877Z,79.32
2023-01-28T23:28:06.868Z,79.47
2023-01-28T23:30:42.078Z,79.60
2023-01-28T23:33:16.957Z,79.63
2023-01-28T23:35:52.991Z,79.55
2023-01-28T23:38:30.491Z,79.45
2023-01-28T23:41:07.282Z,79.42
2023-01-28T23:43:42.781Z,79.44
2023-01-28T23:46:37.851Z,79.33
2023-01-28T23:49:16.976Z,79.34
2023-01-28T23:51:54.095Z,79.40
2023-01-28T23:54:31.184Z,79.24
2023-01-28T23:57:11.952Z,79.30
2023-01-28T23:59:47.715Z,79.62
